createdAt,value
2022-11-14T04:32:38.429Z,36.60
2022-11-14T04:35:12.713Z,36.23
2022-11-14T04:37:47.945Z,36.63
2022-11-14T04:40:17.057Z,35.93
2022-11-14T04:42:45.792Z,36.87
2022-11-14T04:45:14.752Z,35.20
2022-11-14T04:47:45.858Z,36.47
2022-11-14T04:50:14.456Z,34.93
2022-11-14T04:52:43.001Z,35.63
2022-11-14T04:55:12.775Z,36.07
2022-11-14T04:57:41.414Z,36.23
2022-11-14T05:00:11.523Z,36.17
2022-11-14T05:02:39.934Z,35.80
2022-11-14T05:05:10.801Z,37.03
2022-11-14T05:07:39.386Z,37.30
2022-11-14T05:10:09.030Z,35.00
2022-11-14T05:12:37.570Z,37.27
2022-11-14T05:15:06.480Z,35.30
2022-11-14T05:17:35.160Z,35.50
2022-11-14T05:20:03.747Z,36.40
2022-11-14T05:22:33.584Z,37.87
2022-11-14T05:25:02.423Z,37.33
2022-11-14T05:27:30.971Z,38.00
2022-11-14T05:29:59.385Z,36.20
2022-11-14T05:32:28.301Z,37.23
2022-11-14T05:34:56.766Z,37.50
2022-11-14T05:37:25.358Z,38.47
2022-11-14T05:39:56.809Z,36.23
2022-11-14T05:42:29.691Z,37.63
2022-11-14T05:44:59.503Z,36.67
2022-11-14T05:47:28.190Z,38.20
2022-11-14T05:49:56.670Z,38.40
2022-11-14T05:52:25.673Z,39.07
2022-11-14T05:54:54.357Z,37.63
2022-11-14T05:57:24.319Z,37.07
2022-11-14T05:59:52.910Z,37.97
2022-11-14T06:02:21.677Z,36.87
2022-11-14T06:04:51.247Z,37.87
2022-11-14T06:07:20.520Z,36.00
2022-11-14T06:09:49.361Z,37.27
2022-11-14T06:12:18.059Z,39.37
2022-11-14T06:14:47.883Z,38.43
2022-11-14T06:17:16.576Z,38.70
2022-11-14T06:19:45.139Z,38.50
2022-11-14T06:22:13.646Z,38.50
2022-11-14T06:24:42.052Z,39.27
2022-11-14T06:27:10.716Z,37.20
2022-11-14T06:29:40.353Z,35.43
2022-11-14T06:32:10.509Z,36.90
2022-11-14T06:34:38.978Z,38.93
2022-11-14T06:37:07.628Z,39.57
2022-11-14T06:39:36.377Z,40.50
2022-11-14T06:42:05.423Z,38.03
2022-11-14T06:44:34.068Z,37.83
2022-11-14T06:47:02.679Z,37.70
2022-11-14T06:49:36.519Z,36.47
2022-11-14T06:52:07.900Z,37.97
2022-11-14T06:54:36.409Z,37.43
2022-11-14T06:57:05.194Z,36.33
2022-11-14T06:59:33.819Z,37.37
2022-11-14T07:02:02.501Z,36.10
2022-11-14T07:04:32.727Z,37.83
2022-11-14T07:07:01.580Z,36.27
2022-11-14T07:09:30.286Z,38.67
2022-11-14T07:11:59.694Z,37.30
2022-11-14T07:14:29.080Z,36.73
2022-11-14T07:16:57.762Z,36.53
2022-11-14T07:19:26.561Z,36.10
2022-11-14T07:21:56.605Z,36.87
2022-11-14T07:24:25.050Z,35.47
2022-11-14T07:26:54.141Z,36.87
2022-11-14T07:29:22.829Z,38.13
2022-11-14T07:31:51.310Z,38.33
2022-11-14T07:34:20.260Z,36.87
2022-11-14T07:36:48.707Z,35.87
2022-11-14T07:39:18.649Z,34.63
2022-11-14T07:41:47.267Z,32.97
2022-11-14T07:44:15.794Z,34.70
2022-11-14T07:46:44.455Z,34.90
2022-11-14T07:49:12.917Z,31.93
2022-11-14T07:51:47.226Z,32.60
2022-11-14T07:54:16.175Z,34.40
2022-11-14T07:56:46.556Z,33.87
2022-11-14T07:59:15.136Z,32.50
2022-11-14T08:01:43.808Z,35.50
2022-11-14T08:04:12.348Z,33.77
2022-11-14T08:06:41.608Z,32.50
2022-11-14T08:09:10.313Z,34.13
2022-11-14T08:11:51.127Z,32.47
2022-11-14T08:14:21.118Z,33.03
2022-11-14T08:16:50.068Z,31.93
2022-11-14T08:19:18.654Z,33.47
2022-11-14T08:21:47.307Z,33.03
2022-11-14T08:24:15.787Z,32.57
2022-11-14T08:26:45.376Z,32.77
2022-11-14T08:29:14.665Z,30.80
2022-11-14T08:31:44.534Z,32.83
2022-11-14T08:34:13.498Z,31.73
2022-11-14T08:36:42.735Z,33.90
2022-11-14T08:39:11.241Z,33.00
2022-11-14T08:41:39.774Z,32.60
2022-11-14T08:44:08.549Z,31.50
2022-11-14T08:46:37.385Z,32.80
2022-11-14T08:49:08.523Z,32.03
2022-11-14T08:51:37.125Z,32.17
2022-11-14T08:54:06.134Z,31.57
2022-11-14T08:56:34.694Z,32.03
2022-11-14T08:59:05.095Z,30.77
2022-11-14T09:01:33.988Z,30.10
2022-11-14T09:04:02.923Z,31.10
2022-11-14T09:06:33.386Z,31.63
2022-11-14T09:09:02.903Z,30.63
2022-11-14T09:11:31.514Z,30.70
2022-11-14T09:14:01.549Z,30.23
2022-11-14T09:16:30.300Z,31.40
2022-11-14T09:18:58.806Z,29.70
2022-11-14T09:21:27.894Z,30.80
2022-11-14T09:24:01.715Z,28.80
2022-11-14T09:26:31.086Z,29.70
2022-11-14T09:29:02.280Z,29.10
2022-11-14T09:31:31.077Z,27.87
2022-11-14T09:34:00.228Z,30.07
2022-11-14T09:36:29.188Z,28.07
2022-11-14T09:38:59.257Z,28.17
2022-11-14T09:41:38.196Z,28.23
2022-11-14T09:44:33.950Z,26.57
2022-11-14T09:47:07.126Z,28.30
2022-11-14T09:49:40.876Z,42.27
2022-11-14T09:52:20.597Z,28.77
2022-11-14T09:54:57.195Z,28.83
2022-11-14T09:57:27.756Z,29.93
2022-11-14T09:59:57.675Z,27.43
2022-11-14T10:02:44.488Z,27.07
2022-11-14T10:05:26.096Z,27.27
2022-11-14T10:08:07.330Z,26.03
2022-11-14T10:10:53.878Z,26.70
2022-11-14T10:13:37.095Z,24.77
2022-11-14T10:16:15.484Z,25.27
2022-11-14T10:19:00.345Z,24.77
2022-11-14T10:21:56.405Z,25.20
2022-11-14T10:25:05.052Z,25.17
2022-11-14T10:27:42.685Z,26.77
2022-11-14T10:30:14.024Z,26.03
2022-11-14T10:33:02.073Z,26.77
2022-11-14T10:35:36.752Z,24.53
2022-11-14T10:38:12.594Z,25.13
2022-11-14T10:40:45.845Z,25.67
2022-11-14T10:43:25.108Z,24.30
2022-11-14T10:46:00.245Z,22.83
2022-11-14T10:48:33.063Z,24.17
2022-11-14T10:51:06.615Z,25.43
2022-11-14T10:53:50.813Z,25.63
2022-11-14T10:56:20.145Z,25.07
2022-11-14T10:58:50.604Z,23.00
2022-11-14T11:01:39.894Z,24.43
2022-11-14T11:04:23.171Z,24.33
2022-11-14T11:06:53.781Z,23.33
2022-11-14T11:09:45.685Z,23.73
2022-11-14T11:12:18.394Z,32.10
2022-11-14T11:14:50.245Z,36.27
2022-11-14T11:17:28.097Z,36.73
2022-11-14T11:20:28.833Z,24.63
2022-11-14T11:23:05.080Z,26.23
2022-11-14T11:25:35.054Z,25.07
2022-11-14T11:28:08.392Z,22.27
2022-11-14T11:30:39.114Z,21.57
2022-11-14T11:33:26.112Z,21.70
2022-11-14T11:35:59.702Z,21.30
2022-11-14T11:38:31.970Z,22.63
2022-11-14T11:41:15.432Z,21.03
2022-11-14T11:43:58.717Z,22.23
2022-11-14T11:46:35.774Z,21.37
2022-11-14T11:49:12.755Z,20.67
2022-11-14T11:51:46.860Z,19.97
2022-11-14T11:54:17.704Z,21.77
2022-11-14T11:56:50.470Z,20.87
2022-11-14T11:59:29.296Z,21.30
2022-11-14T12:01:59.407Z,19.83
2022-11-14T12:04:27.965Z,22.67
2022-11-14T12:07:13.603Z,21.83
2022-11-14T12:10:09.185Z,23.43
2022-11-14T12:12:47.070Z,20.17
2022-11-14T12:15:23.175Z,19.43
2022-11-14T12:18:38.134Z,21.67
2022-11-14T12:21:13.332Z,20.77
2022-11-14T12:24:05.466Z,20.57
2022-11-14T12:26:58.675Z,19.67
2022-11-14T12:29:51.384Z,19.90
2022-11-14T12:32:28.813Z,18.40
2022-11-14T12:35:00.227Z,19.43
2022-11-14T12:37:36.321Z,19.30
2022-11-14T12:40:08.891Z,18.27
2022-11-14T12:42:37.745Z,19.67
2022-11-14T12:45:45.531Z,18.87
2022-11-14T12:48:23.373Z,18.93
2022-11-14T12:50:54.501Z,18.57
2022-11-14T12:53:42.992Z,18.27
2022-11-14T12:56:53.702Z,19.40
2022-11-14T12:59:36.793Z,19.27
2022-11-14T13:02:24.651Z,19.23
2022-11-14T13:05:15.828Z,16.80
2022-11-14T13:07:58.593Z,18.67
2022-11-14T13:10:31.805Z,19.27
2022-11-14T13:13:26.914Z,19.67
2022-11-14T13:16:14.597Z,17.80
2022-11-14T13:19:12.516Z,17.97
2022-11-14T13:22:21.786Z,17.53
2022-11-14T13:25:22.938Z,15.93
2022-11-14T13:28:19.030Z,14.90
2022-11-14T13:31:09.145Z,18.47
2022-11-14T13:33:44.684Z,18.13
2022-11-14T13:36:20.465Z,18.97
2022-11-14T13:39:09.232Z,18.33
2022-11-14T13:42:13.045Z,18.37
2022-11-14T13:45:14.623Z,17.90
2022-11-14T13:48:09.903Z,19.20
2022-11-14T13:50:40.581Z,18.57
2022-11-14T13:53:17.020Z,18.93
2022-11-14T13:56:02.495Z,17.80
2022-11-14T13:58:45.965Z,17.80
2022-11-14T14:01:30.387Z,17.77
2022-11-14T14:04:20.144Z,16.90
2022-11-14T14:07:05.972Z,18.23
2022-11-14T14:09:46.525Z,17.57
2022-11-14T14:12:34.450Z,19.03
2022-11-14T14:15:17.530Z,16.87
2022-11-14T14:18:02.873Z,17.27
2022-11-14T14:20:41.534Z,16.50
2022-11-14T14:23:21.927Z,15.90
2022-11-14T14:26:01.562Z,15.57
2022-11-14T14:28:40.827Z,16.30
2022-11-14T14:31:16.754Z,16.10
2022-11-14T14:33:48.106Z,15.13
2022-11-14T14:36:22.521Z,16.30
2022-11-14T14:38:51.488Z,16.93
2022-11-14T14:41:21.610Z,15.10
2022-11-14T14:43:55.869Z,15.90
2022-11-14T14:46:32.167Z,16.73
2022-11-14T14:49:04.601Z,16.17
2022-11-14T14:51:36.004Z,15.50
2022-11-14T14:54:08.076Z,15.50
2022-11-14T14:56:36.946Z,15.10
2022-11-14T14:59:18.665Z,15.67
2022-11-14T15:01:50.031Z,15.67
2022-11-14T15:04:19.773Z,15.73
2022-11-14T15:06:49.446Z,16.30
2022-11-14T15:09:22.757Z,15.43
2022-11-14T15:11:53.679Z,15.70
2022-11-14T15:14:25.689Z,15.57
2022-11-14T15:16:57.758Z,15.17
2022-11-14T15:19:35.998Z,15.97
2022-11-14T15:22:07.169Z,16.37
2022-11-14T15:24:36.090Z,16.83
2022-11-14T15:27:06.923Z,15.40
2022-11-14T15:29:35.634Z,16.20
2022-11-14T15:32:06.734Z,15.30
2022-11-14T15:34:37.142Z,17.03
2022-11-14T15:37:20.583Z,16.00
2022-11-14T15:39:49.899Z,16.43
2022-11-14T15:42:28.140Z,16.67
2022-11-14T15:44:57.653Z,16.60
2022-11-14T15:47:30.128Z,18.47
2022-11-14T15:50:03.831Z,18.70
2022-11-14T15:52:35.980Z,17.57
2022-11-14T15:55:05.439Z,17.07
2022-11-14T15:57:35.112Z,18.47
2022-11-14T16:00:04.547Z,17.10
2022-11-14T16:02:46.157Z,17.27
2022-11-14T16:05:16.968Z,18.33
2022-11-14T16:07:45.747Z,19.33
2022-11-14T16:10:19.574Z,18.37
2022-11-14T16:12:52.176Z,18.20
2022-11-14T16:15:22.608Z,18.93
2022-11-14T16:17:52.904Z,18.53
2022-11-14T16:20:23.815Z,17.80
2022-11-14T16:22:55.351Z,17.50
2022-11-14T16:25:26.431Z,18.43
2022-11-14T16:27:56.010Z,19.23
2022-11-14T16:30:25.888Z,20.00
2022-11-14T16:32:55.930Z,18.87
2022-11-14T16:35:26.511Z,19.77
2022-11-14T16:37:57.168Z,18.70
2022-11-14T16:40:28.516Z,18.97
2022-11-14T16:42:58.397Z,19.63
2022-11-14T16:45:28.584Z,19.50
2022-11-14T16:47:59.044Z,20.03
2022-11-14T16:50:27.583Z,21.43
2022-11-14T16:52:56.406Z,19.93
2022-11-14T16:55:25.001Z,20.23
2022-11-14T16:57:53.774Z,20.73
2022-11-14T17:00:23.332Z,19.97
2022-11-14T17:02:52.130Z,19.60
2022-11-14T17:05:22.031Z,20.03
2022-11-14T17:07:50.391Z,20.40
2022-11-14T17:10:19.121Z,21.73
2022-11-14T17:12:47.612Z,21.83
2022-11-14T17:15:16.380Z,20.33
2022-11-14T17:17:50.298Z,20.10
2022-11-14T17:20:19.127Z,19.73
2022-11-14T17:22:49.246Z,20.83
2022-11-14T17:25:17.899Z,19.47
2022-11-14T17:27:49.084Z,21.97
2022-11-14T17:30:18.510Z,21.00
2022-11-14T17:32:47.117Z,20.97
2022-11-14T17:35:15.938Z,20.43
2022-11-14T17:37:44.710Z,21.20
2022-11-14T17:40:15.869Z,20.63
2022-11-14T17:42:44.630Z,20.80
2022-11-14T17:45:13.735Z,20.40
2022-11-14T17:47:42.181Z,20.20
2022-11-14T17:50:11.089Z,20.87
2022-11-14T17:52:41.795Z,20.43
2022-11-14T17:55:10.725Z,19.67
2022-11-14T17:57:41.220Z,20.93
2022-11-14T18:00:11.053Z,21.67
2022-11-14T18:02:39.510Z,22.83
2022-11-14T18:05:13.780Z,20.67
2022-11-14T18:07:42.148Z,21.60
2022-11-14T18:10:11.155Z,20.67
2022-11-14T18:12:43.612Z,21.60
2022-11-14T18:15:12.353Z,21.10
2022-11-14T18:17:41.462Z,20.77
2022-11-14T18:20:10.654Z,20.27
2022-11-14T18:22:39.326Z,20.10
2022-11-14T18:25:09.209Z,20.93
2022-11-14T18:27:37.862Z,20.83
2022-11-14T18:30:34.758Z,21.87
2022-11-14T18:32:57.362Z,20.00
2022-11-14T18:35:26.182Z,21.67
2022-11-14T18:37:54.522Z,21.50
2022-11-14T18:40:23.478Z,21.47
2022-11-14T18:42:51.962Z,21.33
2022-11-14T18:45:21.829Z,20.40
2022-11-14T18:47:50.305Z,21.83
2022-11-14T18:50:18.694Z,20.50
2022-11-14T18:52:47.166Z,20.73
2022-11-14T18:55:16.758Z,21.80
2022-11-14T18:57:45.120Z,21.23
2022-11-14T19:00:15.336Z,21.73
2022-11-14T19:02:45.222Z,22.33
2022-11-14T19:05:19.604Z,22.27
2022-11-14T19:07:48.075Z,21.30
2022-11-14T19:10:17.544Z,21.77
2022-11-14T19:12:49.035Z,21.60
2022-11-14T19:15:17.504Z,21.97
2022-11-14T19:17:48.924Z,23.53
2022-11-14T19:20:17.987Z,23.47
2022-11-14T19:22:46.403Z,23.33
2022-11-14T19:25:14.746Z,22.17
2022-11-14T19:27:43.332Z,21.63
2022-11-14T19:30:12.416Z,22.07
2022-11-14T19:32:43.140Z,23.20
2022-11-14T19:35:19.834Z,22.77
2022-11-14T19:37:48.881Z,22.90
2022-11-14T19:40:17.261Z,21.97
2022-11-14T19:42:45.611Z,22.03
2022-11-14T19:45:14.281Z,22.13
2022-11-14T19:47:42.788Z,21.43
2022-11-14T19:50:13.258Z,21.83
2022-11-14T19:52:41.652Z,20.93
2022-11-14T19:55:10.279Z,20.63
2022-11-14T19:57:38.799Z,21.93
2022-11-14T20:00:09.374Z,20.97
2022-11-14T20:02:40.525Z,21.30
2022-11-14T20:05:10.351Z,20.80
2022-11-14T20:07:40.540Z,21.83
2022-11-14T20:10:09.879Z,21.10
2022-11-14T20:12:38.566Z,20.80
2022-11-14T20:15:08.233Z,21.50
2022-11-14T20:17:36.702Z,21.20
2022-11-14T20:20:06.194Z,22.30
2022-11-14T20:22:34.727Z,22.37
2022-11-14T20:25:05.033Z,21.67
2022-11-14T20:27:33.607Z,20.07
2022-11-14T20:30:02.136Z,21.80
2022-11-14T20:32:30.659Z,21.10
2022-11-14T20:35:01.005Z,21.93
2022-11-14T20:37:30.390Z,21.60
2022-11-14T20:39:59.753Z,21.47
2022-11-14T20:42:29.910Z,20.90
2022-11-14T20:44:59.482Z,22.63
2022-11-14T20:47:30.792Z,21.70
2022-11-14T20:49:59.348Z,22.93
2022-11-14T20:52:27.973Z,23.50
2022-11-14T20:54:56.450Z,21.27
2022-11-14T20:57:29.407Z,22.30
2022-11-14T20:59:57.918Z,22.73
2022-11-14T21:02:26.483Z,25.43
2022-11-14T21:04:55.167Z,22.43
2022-11-14T21:07:23.765Z,22.57
2022-11-14T21:10:13.279Z,23.23
2022-11-14T21:13:06.606Z,22.67
2022-11-14T21:15:36.800Z,22.93
2022-11-14T21:18:05.255Z,24.63
2022-11-14T21:20:34.130Z,24.43
2022-11-14T21:23:02.483Z,24.33
2022-11-14T21:25:31.479Z,23.70
2022-11-14T21:28:03.553Z,24.50
2022-11-14T21:30:32.651Z,23.50
2022-11-14T21:33:01.319Z,22.40
2022-11-14T21:35:33.514Z,21.83
2022-11-14T21:38:02.463Z,23.27
2022-11-14T21:40:30.835Z,24.77
2022-11-14T21:42:59.163Z,24.63
2022-11-14T21:45:28.924Z,24.60
2022-11-14T21:47:57.470Z,24.90
2022-11-14T21:50:25.789Z,22.73
2022-11-14T21:52:54.417Z,23.77
2022-11-14T21:55:22.858Z,21.93
2022-11-14T21:57:55.391Z,22.87
2022-11-14T22:00:24.280Z,24.30
2022-11-14T22:03:15.031Z,22.70
2022-11-14T22:05:46.953Z,22.63
2022-11-14T22:08:17.040Z,23.27
2022-11-14T22:10:45.438Z,25.23
2022-11-14T22:13:14.080Z,25.03
2022-11-14T22:15:42.518Z,24.60
2022-11-14T22:18:12.376Z,25.23
2022-11-14T22:20:40.858Z,25.23
2022-11-14T22:23:10.244Z,24.03
2022-11-14T22:25:38.678Z,23.90
2022-11-14T22:28:07.255Z,24.03
2022-11-14T22:30:35.647Z,26.97
2022-11-14T22:33:04.087Z,27.03
2022-11-14T22:35:37.813Z,24.70
2022-11-14T22:38:06.277Z,23.90
2022-11-14T22:40:34.770Z,26.23
2022-11-14T22:43:03.211Z,25.73
2022-11-14T22:45:31.674Z,24.07
2022-11-14T22:48:00.573Z,23.73
2022-11-14T22:50:28.950Z,27.83
2022-11-14T22:52:58.665Z,25.87
2022-11-14T22:55:27.180Z,26.20
2022-11-14T22:57:55.667Z,26.70
2022-11-14T23:00:24.275Z,25.03
2022-11-14T23:02:54.565Z,25.40
2022-11-14T23:05:24.151Z,26.87
2022-11-14T23:07:52.872Z,26.03
2022-11-14T23:10:22.751Z,25.47
2022-11-14T23:12:51.012Z,25.20
2022-11-14T23:15:19.592Z,25.93
2022-11-14T23:17:48.060Z,26.17
2022-11-14T23:20:16.961Z,27.10
2022-11-14T23:22:45.657Z,27.03
2022-11-14T23:25:14.270Z,26.30
2022-11-14T23:27:44.139Z,26.13
2022-11-14T23:30:13.072Z,25.53
2022-11-14T23:32:41.590Z,26.87
2022-11-14T23:35:10.338Z,27.50
2022-11-14T23:37:38.796Z,27.73
2022-11-14T23:40:08.887Z,27.47
2022-11-14T23:42:37.413Z,29.53
2022-11-14T23:45:08.140Z,27.47
2022-11-14T23:47:36.588Z,24.40
2022-11-14T23:50:05.321Z,25.90
